Azle, Texas
Current Conditions -  °F | °C
As of 10:52 PM on Monday 20 Oct 2014 (Local Time) from KNFW Reporting Station
Clear Clear  
Wind Chill: 22°   Ceiling: Unl
Heat Index: 22°   Visibility: 10mi
Dew Point: 14°   Wind: 6mph
Humidity: 59%   Direction: 160°SSE
Pressure: 30.1"   Gusts: NA
Location:  32.88°N, 97.54°W
Report Text: KNFW 210352Z 16005KT 10SM CLR 22/14 A3010 RMK AO2 SLP174 T02220139 CHINO N VISNO N $
Loading
Personal Weather Stations






























Interactive Weather Map
Tropical Storm Tracking
New forecast layout! Learn more

10-Day Weather Forecast

Advertisements
Track Severe Weather on mobile